createdAt,value
2017-05-28T00:00:13.326Z,3.50
2017-05-28T00:02:42.350Z,3.12
2017-05-28T00:05:11.715Z,3.20
2017-05-28T00:07:40.753Z,2.96
2017-05-28T00:10:09.691Z,3.08
2017-05-28T00:12:39.222Z,2.94
2017-05-28T00:15:08.202Z,2.82
2017-05-28T00:17:37.246Z,3.14
2017-05-28T00:20:06.561Z,3.24
2017-05-28T00:22:35.514Z,3.14
2017-05-28T00:25:04.590Z,3.34
2017-05-28T00:27:33.976Z,3.28
2017-05-28T00:30:02.927Z,2.52
2017-05-28T00:32:31.886Z,2.98
2017-05-28T00:35:01.347Z,3.20
2017-05-28T00:37:30.318Z,2.54
2017-05-28T00:39:59.287Z,3.26
2017-05-28T00:42:28.652Z,2.40
2017-05-28T00:44:57.734Z,3.16
2017-05-28T00:47:26.828Z,2.80
2017-05-28T00:49:56.233Z,2.60
2017-05-28T00:52:25.188Z,2.86
2017-05-28T00:54:54.185Z,2.72
2017-05-28T00:57:23.623Z,3.46
2017-05-28T00:59:52.605Z,3.12
2017-05-28T01:02:21.573Z,2.82
2017-05-28T01:04:51.004Z,3.10
2017-05-28T01:07:20.032Z,2.84
2017-05-28T01:09:48.996Z,3.18
2017-05-28T01:12:18.285Z,2.72
2017-05-28T01:14:47.246Z,3.52
2017-05-28T01:17:16.204Z,2.94
2017-05-28T01:19:45.562Z,2.88
2017-05-28T01:22:15.144Z,2.70
2017-05-28T01:24:44.130Z,2.58
2017-05-28T01:27:13.471Z,3.18
2017-05-28T01:29:42.440Z,3.08
2017-05-28T01:32:11.417Z,2.62
2017-05-28T01:34:40.749Z,2.52
2017-05-28T01:37:09.696Z,2.98
2017-05-28T01:39:38.650Z,2.88
2017-05-28T01:42:08.035Z,2.48
2017-05-28T01:44:36.977Z,2.34
2017-05-28T01:47:05.959Z,2.40
2017-05-28T01:49:35.315Z,2.70
2017-05-28T01:52:04.304Z,2.62
2017-05-28T01:54:33.263Z,2.30
2017-05-28T01:57:02.602Z,2.48
2017-05-28T01:59:31.615Z,2.80
2017-05-28T02:02:00.590Z,2.80
2017-05-28T02:04:29.968Z,2.78
2017-05-28T02:06:58.920Z,2.42
2017-05-28T02:09:27.915Z,2.80
2017-05-28T02:11:57.220Z,1.96
2017-05-28T02:14:26.176Z,2.40
2017-05-28T02:16:55.152Z,2.42
2017-05-28T02:19:24.464Z,2.84
2017-05-28T02:21:53.433Z,2.84
2017-05-28T02:24:22.435Z,1.98
2017-05-28T02:26:51.839Z,2.86
2017-05-28T02:29:20.803Z,3.18
2017-05-28T02:31:49.804Z,2.34
2017-05-28T02:34:19.121Z,2.52
2017-05-28T02:36:48.373Z,2.76
2017-05-28T02:39:17.343Z,3.64
2017-05-28T02:41:46.656Z,3.04
2017-05-28T02:44:14.845Z,2.80
2017-05-28T02:46:43.770Z,3.18
2017-05-28T02:49:13.168Z,2.60
2017-05-28T02:51:42.123Z,2.30
2017-05-28T02:54:11.085Z,2.22
2017-05-28T02:56:40.394Z,2.54
2017-05-28T02:59:09.348Z,2.64
2017-05-28T03:01:38.282Z,2.68
2017-05-28T03:04:07.635Z,2.84
2017-05-28T03:06:36.590Z,2.50
2017-05-28T03:09:05.552Z,3.00
2017-05-28T03:11:34.919Z,2.70
2017-05-28T03:14:03.881Z,2.70
2017-05-28T03:16:32.909Z,2.90
2017-05-28T03:19:02.243Z,2.32
2017-05-28T03:21:31.202Z,2.42
2017-05-28T03:24:00.145Z,2.64
2017-05-28T03:26:29.717Z,2.92
2017-05-28T03:28:58.699Z,2.78
2017-05-28T03:31:27.663Z,2.52
2017-05-28T03:33:57.196Z,2.92
2017-05-28T03:36:26.208Z,2.58
2017-05-28T03:38:55.159Z,3.10
2017-05-28T03:41:24.488Z,3.18
2017-05-28T03:43:53.446Z,2.24
2017-05-28T03:46:22.437Z,2.92
2017-05-28T03:48:51.749Z,2.44
2017-05-28T03:51:20.708Z,2.70
2017-05-28T03:53:49.708Z,2.42
2017-05-28T03:56:19.050Z,2.96
2017-05-28T03:58:48.011Z,2.52
2017-05-28T04:01:16.975Z,2.72
2017-05-28T04:03:46.324Z,3.00
2017-05-28T04:06:15.280Z,2.54
2017-05-28T04:08:44.260Z,3.00
2017-05-28T04:11:13.612Z,3.20
2017-05-28T04:13:42.568Z,3.36
2017-05-28T04:16:11.523Z,2.50
2017-05-28T04:18:40.880Z,2.70
2017-05-28T04:21:09.921Z,2.80
2017-05-28T04:23:38.911Z,2.58
2017-05-28T04:26:08.376Z,2.94
2017-05-28T04:28:37.349Z,3.00
2017-05-28T04:31:06.298Z,2.48
2017-05-28T04:33:35.598Z,2.62
2017-05-28T04:36:04.585Z,2.52
2017-05-28T04:38:33.548Z,2.86
2017-05-28T04:41:02.954Z,2.40
2017-05-28T04:43:31.934Z,2.32
2017-05-28T04:46:00.903Z,2.80
2017-05-28T04:48:30.227Z,3.26
2017-05-28T04:50:59.191Z,2.86
2017-05-28T04:53:28.139Z,2.64
2017-05-28T04:55:57.504Z,2.94
2017-05-28T04:58:26.467Z,2.70
2017-05-28T05:00:55.435Z,3.08
2017-05-28T05:03:24.767Z,2.38
2017-05-28T05:05:53.852Z,2.30
2017-05-28T05:08:22.826Z,3.00
2017-05-28T05:10:52.130Z,3.10
2017-05-28T05:13:21.107Z,2.70
2017-05-28T05:15:50.055Z,2.88
2017-05-28T05:18:19.461Z,2.36
2017-05-28T05:20:48.416Z,2.64
2017-05-28T05:23:17.366Z,2.80
2017-05-28T05:25:46.770Z,2.90
2017-05-28T05:28:15.725Z,2.80
2017-05-28T05:30:44.689Z,2.76
2017-05-28T05:33:13.993Z,2.68
2017-05-28T05:35:42.182Z,2.56
2017-05-28T05:38:11.127Z,2.60
2017-05-28T05:40:40.430Z,2.48
2017-05-28T05:43:09.392Z,2.80
2017-05-28T05:45:38.352Z,2.36
2017-05-28T05:48:07.758Z,2.82
2017-05-28T05:50:36.726Z,2.22
2017-05-28T05:53:05.705Z,2.94
2017-05-28T05:55:35.047Z,2.56
2017-05-28T05:58:03.976Z,2.18
2017-05-28T06:00:32.930Z,2.40
2017-05-28T06:03:02.231Z,2.42
2017-05-28T06:05:31.197Z,2.04
2017-05-28T06:08:00.173Z,3.02
2017-05-28T06:10:29.479Z,2.46
2017-05-28T06:12:58.456Z,2.46
2017-05-28T06:15:27.419Z,2.78
2017-05-28T06:17:56.894Z,2.36
2017-05-28T06:20:25.863Z,2.70
2017-05-28T06:22:54.842Z,2.46
2017-05-28T06:25:24.595Z,2.96
2017-05-28T06:27:53.550Z,3.14
2017-05-28T06:30:22.567Z,2.76
2017-05-28T06:32:51.997Z,2.88
2017-05-28T06:35:20.958Z,2.68
2017-05-28T06:37:49.914Z,3.54
2017-05-28T06:40:19.262Z,2.92
2017-05-28T06:42:48.258Z,2.74
2017-05-28T06:45:17.198Z,2.74
2017-05-28T06:47:46.573Z,3.68
2017-05-28T06:50:15.534Z,3.40
2017-05-28T06:52:43.727Z,3.52
2017-05-28T06:55:13.111Z,3.14
2017-05-28T06:57:42.115Z,3.22
2017-05-28T07:00:11.068Z,3.40
2017-05-28T07:02:40.499Z,3.44
2017-05-28T07:05:09.439Z,4.12
2017-05-28T07:07:38.399Z,3.34
2017-05-28T07:10:07.784Z,3.92
2017-05-28T07:12:36.737Z,4.00
2017-05-28T07:15:05.702Z,3.42
2017-05-28T07:17:35.058Z,3.94
2017-05-28T07:20:04.049Z,3.86
2017-05-28T07:22:33.043Z,9.68
2017-05-28T07:25:02.521Z,4.18
2017-05-28T07:27:31.562Z,3.80
2017-05-28T07:30:00.544Z,4.18
2017-05-28T07:32:29.935Z,4.62
2017-05-28T07:34:58.173Z,4.62
2017-05-28T07:37:27.148Z,4.10
2017-05-28T07:39:56.501Z,3.70
2017-05-28T07:42:25.503Z,3.78
2017-05-28T07:44:54.547Z,3.68
2017-05-28T07:47:23.890Z,3.32
2017-05-28T07:49:52.851Z,3.44
2017-05-28T07:52:21.799Z,3.36
2017-05-28T07:54:51.171Z,3.30
2017-05-28T07:57:20.144Z,2.58
2017-05-28T07:59:49.114Z,2.96
2017-05-28T08:02:18.467Z,3.02
2017-05-28T08:04:47.475Z,3.20
2017-05-28T08:07:16.442Z,3.08
2017-05-28T08:09:45.849Z,2.98
2017-05-28T08:12:14.888Z,2.96
2017-05-28T08:14:43.846Z,2.82
2017-05-28T08:17:13.233Z,3.52
2017-05-28T08:19:42.220Z,3.32
2017-05-28T08:22:11.227Z,3.76
2017-05-28T08:24:40.602Z,3.06
2017-05-28T08:27:09.561Z,3.36
2017-05-28T08:29:38.544Z,3.02
2017-05-28T08:32:07.906Z,2.48
2017-05-28T08:34:36.933Z,3.10
2017-05-28T08:37:05.899Z,2.72
2017-05-28T08:39:35.278Z,2.98
2017-05-28T08:42:04.256Z,2.72
2017-05-28T08:44:33.251Z,2.92
2017-05-28T08:47:02.597Z,3.02
2017-05-28T08:49:31.562Z,2.78
2017-05-28T08:52:00.552Z,2.66
2017-05-28T08:54:29.914Z,2.64
2017-05-28T08:56:58.863Z,2.70
2017-05-28T08:59:27.919Z,2.72
2017-05-28T09:01:57.347Z,2.68
2017-05-28T09:04:26.356Z,2.24
2017-05-28T09:06:55.330Z,3.06
2017-05-28T09:09:24.719Z,2.50
2017-05-28T09:11:53.770Z,2.68
2017-05-28T09:14:22.761Z,2.32
2017-05-28T09:16:52.092Z,2.88
2017-05-28T09:19:21.084Z,2.70
2017-05-28T09:21:50.086Z,2.14
2017-05-28T09:24:19.505Z,2.54
2017-05-28T09:26:48.507Z,2.92
2017-05-28T09:29:17.500Z,2.74
2017-05-28T09:31:46.808Z,3.16
2017-05-28T09:34:15.835Z,2.86
2017-05-28T09:36:44.787Z,2.90
2017-05-28T09:39:14.171Z,3.20
2017-05-28T09:41:43.167Z,3.28
2017-05-28T09:44:12.362Z,3.56
2017-05-28T09:46:41.694Z,2.70
2017-05-28T09:49:10.673Z,2.92
2017-05-28T09:51:39.708Z,3.20
2017-05-28T09:54:09.043Z,3.38
2017-05-28T09:56:37.305Z,2.94
2017-05-28T09:59:06.278Z,2.52
2017-05-28T10:01:35.621Z,2.92
2017-05-28T10:04:04.576Z,4.96
2017-05-28T10:06:33.514Z,2.90
2017-05-28T10:09:02.906Z,2.96
2017-05-28T10:11:31.862Z,3.12
2017-05-28T10:14:00.892Z,3.12
2017-05-28T10:16:30.197Z,3.04
2017-05-28T10:18:59.155Z,3.42
2017-05-28T10:21:28.332Z,3.02
2017-05-28T10:23:57.783Z,3.20
2017-05-28T10:26:26.772Z,3.00
2017-05-28T10:28:55.725Z,3.42
2017-05-28T10:31:25.035Z,3.06
2017-05-28T10:33:53.997Z,3.00
2017-05-28T10:36:22.964Z,3.30
2017-05-28T10:38:52.384Z,3.26
2017-05-28T10:41:21.381Z,3.22
2017-05-28T10:43:51.234Z,3.12
2017-05-28T10:46:20.770Z,2.84
2017-05-28T10:48:49.733Z,2.46
2017-05-28T10:51:18.692Z,3.02
2017-05-28T10:53:48.075Z,2.70
2017-05-28T10:56:17.023Z,2.44
2017-05-28T10:58:46.019Z,2.20
2017-05-28T11:01:15.485Z,2.28
2017-05-28T11:03:44.486Z,2.34
2017-05-28T11:06:13.546Z,2.42
2017-05-28T11:08:42.920Z,2.20
2017-05-28T11:11:11.869Z,2.60
2017-05-28T11:13:40.839Z,3.08
2017-05-28T11:16:10.185Z,2.82
2017-05-28T11:18:40.036Z,2.58
2017-05-28T11:21:08.999Z,2.48
2017-05-28T11:23:38.295Z,3.00
2017-05-28T11:26:07.280Z,3.16
2017-05-28T11:28:36.281Z,2.50
2017-05-28T11:31:05.673Z,3.06
2017-05-28T11:33:34.729Z,3.30
2017-05-28T11:36:03.748Z,2.54
2017-05-28T11:38:33.170Z,2.82
2017-05-28T11:41:02.149Z,2.82
2017-05-28T11:43:31.117Z,3.80
2017-05-28T11:46:00.494Z,2.32
2017-05-28T11:48:29.464Z,2.72
2017-05-28T11:50:58.456Z,2.74
2017-05-28T11:53:27.827Z,3.34
2017-05-28T11:55:56.858Z,2.98
2017-05-28T11:58:25.894Z,3.00
2017-05-28T12:00:55.323Z,4.06
2017-05-28T12:03:24.359Z,3.64
2017-05-28T12:05:53.347Z,3.46
2017-05-28T12:08:22.721Z,3.38
2017-05-28T12:10:51.715Z,3.30
2017-05-28T12:13:20.724Z,3.42
2017-05-28T12:15:50.103Z,3.78
2017-05-28T12:18:19.171Z,2.86
2017-05-28T12:20:48.250Z,3.46
2017-05-28T12:23:20.071Z,2.94
2017-05-28T12:25:49.026Z,3.56
2017-05-28T12:28:17.998Z,3.70
2017-05-28T12:30:47.330Z,3.58
2017-05-28T12:33:16.320Z,2.94
2017-05-28T12:35:45.286Z,3.00
2017-05-28T12:38:14.733Z,3.52
2017-05-28T12:40:43.680Z,3.90
2017-05-28T12:43:12.655Z,3.32
2017-05-28T12:45:42.109Z,3.32
2017-05-28T12:48:11.073Z,2.82
2017-05-28T12:50:40.043Z,3.06
2017-05-28T12:53:09.392Z,2.98
2017-05-28T12:55:38.365Z,2.84
2017-05-28T12:58:07.991Z,2.82
2017-05-28T13:00:37.380Z,3.08
2017-05-28T13:03:06.305Z,3.64
2017-05-28T13:05:35.299Z,2.76
2017-05-28T13:08:04.715Z,3.10
2017-05-28T13:10:33.680Z,3.30
2017-05-28T13:13:02.646Z,4.00
2017-05-28T13:15:32.074Z,3.16
2017-05-28T13:18:01.093Z,3.16
2017-05-28T13:20:30.059Z,3.50
2017-05-28T13:22:59.417Z,3.46
2017-05-28T13:25:28.367Z,2.68
2017-05-28T13:27:57.310Z,3.12
2017-05-28T13:30:26.830Z,2.98
2017-05-28T13:32:55.811Z,3.44
2017-05-28T13:35:24.812Z,3.68
2017-05-28T13:37:54.192Z,3.32
2017-05-28T13:40:23.284Z,3.48
2017-05-28T13:42:52.254Z,3.62
2017-05-28T13:45:21.639Z,3.52
2017-05-28T13:47:50.718Z,2.82
2017-05-28T13:50:19.753Z,2.48
2017-05-28T13:52:49.192Z,2.80
2017-05-28T13:55:18.226Z,3.02
2017-05-28T13:57:47.178Z,3.04
2017-05-28T14:00:16.578Z,2.34
2017-05-28T14:02:45.578Z,2.58
2017-05-28T14:05:14.572Z,2.28
2017-05-28T14:07:43.974Z,1.86
2017-05-28T14:10:12.956Z,2.50
2017-05-28T14:12:41.940Z,1.80
2017-05-28T14:15:11.325Z,2.00
2017-05-28T14:17:40.302Z,2.10
2017-05-28T14:20:09.286Z,1.70
2017-05-28T14:22:38.688Z,2.10
2017-05-28T14:25:07.714Z,2.16
2017-05-28T14:27:36.687Z,2.12
2017-05-28T14:30:06.123Z,1.90
2017-05-28T14:32:35.081Z,2.38
2017-05-28T14:35:03.294Z,1.96
2017-05-28T14:37:32.687Z,2.48
2017-05-28T14:40:01.650Z,1.74
2017-05-28T14:42:30.628Z,2.40
2017-05-28T14:45:00.099Z,2.60
2017-05-28T14:47:29.104Z,2.10
2017-05-28T14:49:58.067Z,4.42
2017-05-28T14:52:27.458Z,3.70
2017-05-28T14:54:56.444Z,3.00
2017-05-28T14:57:25.401Z,3.10
2017-05-28T14:59:54.951Z,3.62
2017-05-28T15:02:23.939Z,4.40
2017-05-28T15:04:53.050Z,5.30
2017-05-28T15:07:22.487Z,5.86
2017-05-28T15:09:51.476Z,4.88
2017-05-28T15:12:20.598Z,4.40
2017-05-28T15:14:50.016Z,5.14
2017-05-28T15:17:18.969Z,5.36
2017-05-28T15:19:47.987Z,5.70
2017-05-28T15:22:17.393Z,4.58
2017-05-28T15:24:46.366Z,4.58
2017-05-28T15:27:15.335Z,5.96
2017-05-28T15:29:44.333Z,4.80
2017-05-28T15:32:13.337Z,5.16
2017-05-28T15:34:42.689Z,6.50
2017-05-28T15:37:11.647Z,6.52
2017-05-28T15:39:40.611Z,7.00
2017-05-28T15:42:09.944Z,6.00
2017-05-28T15:44:38.911Z,6.78
2017-05-28T15:47:07.855Z,6.44
2017-05-28T15:49:37.241Z,6.80
2017-05-28T15:52:06.183Z,4.74
2017-05-28T15:54:35.173Z,6.16
2017-05-28T15:57:04.613Z,4.92
2017-05-28T15:59:33.583Z,4.20
2017-05-28T16:02:02.577Z,3.00
2017-05-28T16:04:32.119Z,3.88
2017-05-28T16:07:01.073Z,3.00
2017-05-28T16:09:30.019Z,3.04
2017-05-28T16:11:59.347Z,3.06
2017-05-28T16:14:28.320Z,3.04
2017-05-28T16:16:57.302Z,3.48
2017-05-28T16:19:26.682Z,2.90
2017-05-28T16:21:55.662Z,3.28
2017-05-28T16:24:24.644Z,2.92
2017-05-28T16:26:53.986Z,3.56
2017-05-28T16:29:22.949Z,3.20
2017-05-28T16:31:51.923Z,3.64
2017-05-28T16:34:21.319Z,3.14
2017-05-28T16:36:50.348Z,3.64
2017-05-28T16:39:19.333Z,4.86
2017-05-28T16:41:48.746Z,4.20
2017-05-28T16:44:17.772Z,3.36
2017-05-28T16:46:46.747Z,4.06
2017-05-28T16:49:16.068Z,3.86
2017-05-28T16:51:45.027Z,3.70
2017-05-28T16:54:14.024Z,2.80
2017-05-28T16:56:43.407Z,3.42
2017-05-28T16:59:12.466Z,3.30
2017-05-28T17:01:41.463Z,4.02
2017-05-28T17:04:10.779Z,4.14
2017-05-28T17:06:39.914Z,3.14
2017-05-28T17:09:08.915Z,2.64
2017-05-28T17:11:38.267Z,3.32
2017-05-28T17:14:07.287Z,3.20
2017-05-28T17:16:36.246Z,3.42
2017-05-28T17:19:05.567Z,3.60
2017-05-28T17:21:34.558Z,3.28
2017-05-28T17:24:03.613Z,3.40
2017-05-28T17:26:33.058Z,2.78
2017-05-28T17:29:02.033Z,2.64
2017-05-28T17:31:31.025Z,2.48
2017-05-28T17:34:00.439Z,2.14
2017-05-28T17:36:29.398Z,2.34
2017-05-28T17:38:58.376Z,2.36
2017-05-28T17:41:27.921Z,2.16
2017-05-28T17:43:56.912Z,2.22
2017-05-28T17:46:25.925Z,2.32
2017-05-28T17:48:55.512Z,3.00
2017-05-28T17:51:24.474Z,2.24
2017-05-28T17:53:53.464Z,2.88
2017-05-28T17:56:22.933Z,2.76
2017-05-28T17:58:51.918Z,2.46
2017-05-28T18:01:20.884Z,2.38
2017-05-28T18:03:50.251Z,2.40
2017-05-28T18:06:19.227Z,2.38
2017-05-28T18:08:48.210Z,2.52
2017-05-28T18:11:17.595Z,2.56
2017-05-28T18:13:46.594Z,2.40
2017-05-28T18:16:15.576Z,2.70
2017-05-28T18:18:44.902Z,2.40
2017-05-28T18:21:13.862Z,2.18
2017-05-28T18:23:42.909Z,2.62
2017-05-28T18:26:12.330Z,2.84
2017-05-28T18:28:41.368Z,2.08
2017-05-28T18:31:10.405Z,2.22
2017-05-28T18:33:39.747Z,2.18
2017-05-28T18:36:08.914Z,2.98
2017-05-28T18:38:38.019Z,2.32
2017-05-28T18:41:08.802Z,1.98
2017-05-28T18:43:37.817Z,2.40
2017-05-28T18:46:06.972Z,2.66
2017-05-28T18:48:36.372Z,2.38
2017-05-28T18:51:05.325Z,2.46
2017-05-28T18:53:34.495Z,2.36
2017-05-28T18:56:03.858Z,2.30
2017-05-28T18:58:32.936Z,2.50
2017-05-28T19:01:01.943Z,2.18
2017-05-28T19:03:31.149Z,3.06
2017-05-28T19:06:00.171Z,2.16
2017-05-28T19:08:39.705Z,2.18
2017-05-28T19:11:09.417Z,2.30
2017-05-28T19:13:38.623Z,2.16
2017-05-28T19:16:08.080Z,2.72
2017-05-28T19:18:37.174Z,2.02
2017-05-28T19:21:06.231Z,2.02
2017-05-28T19:23:35.655Z,2.28
2017-05-28T19:26:04.641Z,2.60
2017-05-28T19:28:33.668Z,1.70
2017-05-28T19:31:03.048Z,1.84
2017-05-28T19:33:32.066Z,2.80
2017-05-28T19:36:01.146Z,2.46
2017-05-28T19:38:30.568Z,2.96
2017-05-28T19:40:59.832Z,2.34
2017-05-28T19:43:28.061Z,2.10
2017-05-28T19:45:57.555Z,2.48
2017-05-28T19:48:26.733Z,2.50
2017-05-28T19:50:55.778Z,2.30
2017-05-28T19:53:25.211Z,2.54
2017-05-28T19:55:54.265Z,2.02
2017-05-28T19:58:23.262Z,2.72
2017-05-28T20:00:52.727Z,2.52
2017-05-28T20:03:20.934Z,2.68
2017-05-28T20:05:49.921Z,3.02
2017-05-28T20:08:19.477Z,3.22
2017-05-28T20:10:48.441Z,2.42
2017-05-28T20:13:17.431Z,3.50
2017-05-28T20:15:46.896Z,3.18
2017-05-28T20:18:15.907Z,4.08
2017-05-28T20:20:44.898Z,3.66
2017-05-28T20:23:14.254Z,3.68
2017-05-28T20:25:43.227Z,3.78
2017-05-28T20:28:12.251Z,3.60
2017-05-28T20:30:41.622Z,4.32
2017-05-28T20:33:09.852Z,3.32
2017-05-28T20:35:38.916Z,4.02
2017-05-28T20:38:08.457Z,3.90
2017-05-28T20:40:37.427Z,3.48
2017-05-28T20:43:06.476Z,3.86
2017-05-28T20:45:35.186Z,4.06
2017-05-28T20:48:04.180Z,3.62
2017-05-28T20:50:33.158Z,3.52
2017-05-28T20:53:02.550Z,4.02
2017-05-28T20:55:31.578Z,4.66
2017-05-28T20:58:00.574Z,4.92
2017-05-28T21:00:29.962Z,4.52
2017-05-28T21:02:58.942Z,4.08
2017-05-28T21:05:27.184Z,5.56
2017-05-28T21:07:56.698Z,4.96
2017-05-28T21:10:25.702Z,5.22
2017-05-28T21:12:54.752Z,4.30
2017-05-28T21:15:24.100Z,4.66
2017-05-28T21:17:53.132Z,5.08
2017-05-28T21:20:22.155Z,6.38
2017-05-28T21:22:51.629Z,5.94
2017-05-28T21:25:20.624Z,6.64
2017-05-28T21:27:49.619Z,6.22
2017-05-28T21:30:18.931Z,7.22
2017-05-28T21:32:47.950Z,7.02
2017-05-28T21:35:16.942Z,7.30
2017-05-28T21:37:46.348Z,7.86
2017-05-28T21:40:15.322Z,7.94
2017-05-28T21:42:44.346Z,7.32
2017-05-28T21:45:13.710Z,7.90
2017-05-28T21:47:42.710Z,8.32
2017-05-28T21:50:11.719Z,9.30
2017-05-28T21:52:40.405Z,9.04
2017-05-28T21:55:09.403Z,7.84
2017-05-28T21:57:38.410Z,8.16
2017-05-28T22:00:07.894Z,9.52
2017-05-28T22:02:36.894Z,9.40
2017-05-28T22:05:05.880Z,7.88
2017-05-28T22:07:35.279Z,8.52
2017-05-28T22:10:04.262Z,9.28
2017-05-28T22:12:33.306Z,9.64
2017-05-28T22:15:02.712Z,9.58
2017-05-28T22:17:31.722Z,10.88
2017-05-28T22:20:00.821Z,10.42
2017-05-28T22:22:30.166Z,9.52
2017-05-28T22:24:59.164Z,10.08
2017-05-28T22:27:28.163Z,10.80
2017-05-28T22:29:57.525Z,9.82
2017-05-28T22:32:26.519Z,11.02
2017-05-28T22:34:55.479Z,11.46
2017-05-28T22:37:24.874Z,10.82
2017-05-28T22:39:53.867Z,9.88
2017-05-28T22:42:22.880Z,11.74
2017-05-28T22:44:52.224Z,10.74
2017-05-28T22:47:21.226Z,12.60
2017-05-28T22:49:50.214Z,13.28
2017-05-28T22:52:19.623Z,13.40
2017-05-28T22:54:48.621Z,14.62
2017-05-28T22:57:16.899Z,13.96
2017-05-28T22:59:46.275Z,14.60
2017-05-28T23:02:15.293Z,15.58
2017-05-28T23:04:43.592Z,15.20
2017-05-28T23:07:13.048Z,17.52
2017-05-28T23:09:42.023Z,16.44
2017-05-28T23:12:11.001Z,16.08
2017-05-28T23:14:40.409Z,17.50
2017-05-28T23:17:09.369Z,17.70
2017-05-28T23:19:38.355Z,18.78
2017-05-28T23:22:07.901Z,17.88
2017-05-28T23:24:36.872Z,18.94
2017-05-28T23:27:05.838Z,16.36
2017-05-28T23:29:35.180Z,16.72
2017-05-28T23:32:04.264Z,15.72
2017-05-28T23:34:33.228Z,15.12
2017-05-28T23:37:02.696Z,16.96
2017-05-28T23:39:31.643Z,14.82
2017-05-28T23:42:00.645Z,16.08
2017-05-28T23:44:30.070Z,17.20
2017-05-28T23:46:59.091Z,18.92
2017-05-28T23:49:28.041Z,19.58
2017-05-28T23:51:57.362Z,18.50
2017-05-28T23:54:26.334Z,20.72
2017-05-28T23:56:55.302Z,18.22
2017-05-28T23:59:24.838Z,19.36
